« Back
NWS Peachtree City, Ga » Text Product » MCN Terminal Aerodrome Forecast


Printer-friendly Version
Current Version              Previous Versions:   1  2  3  4  5  6  7  8  9  

Terminal Aerodrome Forecast

462
FTUS42 KFFC 062325
TAFMCN
TAF
KMCN 062325Z 0700/0724 33008KT P6SM FEW080
     FM070300 30006KT P6SM SKC
     FM071500 29010KT P6SM FEW045
     FM071900 29013G23KT P6SM FEW060=

USA.gov is the U.S. government's official web portal to all federal, state and local government web resources and services.